createdAt,value
2017-08-03T00:02:06.915Z,19.57
2017-08-03T00:04:34.327Z,19.10
2017-08-03T00:07:01.727Z,18.47
2017-08-03T00:09:29.151Z,18.00
2017-08-03T00:11:56.561Z,18.10
2017-08-03T00:14:23.967Z,18.30
2017-08-03T00:16:51.367Z,18.30
2017-08-03T00:19:18.774Z,18.47
2017-08-03T00:21:46.179Z,17.90
2017-08-03T00:24:13.588Z,18.53
2017-08-03T00:26:41.001Z,17.80
2017-08-03T00:29:08.407Z,17.40
2017-08-03T00:31:35.803Z,17.60
2017-08-03T00:34:03.251Z,17.13
2017-08-03T00:36:30.663Z,17.40
2017-08-03T00:38:58.052Z,16.40
2017-08-03T00:41:25.456Z,17.90
2017-08-03T00:43:52.868Z,15.83
2017-08-03T00:46:20.281Z,16.40
2017-08-03T00:48:47.672Z,17.23
2017-08-03T00:51:15.071Z,16.70
2017-08-03T00:53:42.482Z,17.87
2017-08-03T00:56:09.876Z,17.23
2017-08-03T00:58:37.291Z,17.03
2017-08-03T01:01:04.736Z,17.40
2017-08-03T01:03:32.138Z,17.20
2017-08-03T01:05:59.551Z,16.90
2017-08-03T01:08:26.970Z,16.90
2017-08-03T01:10:54.391Z,18.27
2017-08-03T01:13:21.827Z,17.63
2017-08-03T01:15:49.256Z,18.37
2017-08-03T01:18:16.663Z,17.33
2017-08-03T01:20:44.079Z,17.43
2017-08-03T01:23:11.505Z,17.10
2017-08-03T01:25:38.904Z,18.60
2017-08-03T01:28:06.299Z,16.70
2017-08-03T01:30:33.709Z,16.30
2017-08-03T01:33:01.108Z,17.17
2017-08-03T01:35:28.528Z,17.77
2017-08-03T01:37:55.944Z,19.13
2017-08-03T01:40:23.336Z,18.00
2017-08-03T01:42:51.049Z,17.23
2017-08-03T01:45:18.452Z,17.63
2017-08-03T01:47:45.867Z,18.47
2017-08-03T01:50:13.301Z,18.33
2017-08-03T01:52:40.713Z,18.60
2017-08-03T01:55:08.119Z,17.80
2017-08-03T01:57:35.515Z,16.87
2017-08-03T02:00:02.940Z,16.53
2017-08-03T02:02:30.346Z,17.30
2017-08-03T02:04:57.758Z,17.63
2017-08-03T02:07:25.150Z,17.00
2017-08-03T02:09:52.567Z,17.30
2017-08-03T02:12:19.964Z,18.00
2017-08-03T02:14:47.375Z,17.87
2017-08-03T02:17:14.778Z,16.57
2017-08-03T02:19:42.194Z,17.20
2017-08-03T02:22:09.591Z,16.13
2017-08-03T02:24:36.988Z,17.60
2017-08-03T02:27:04.553Z,17.03
2017-08-03T02:29:31.952Z,16.83
2017-08-03T02:31:59.351Z,16.57
2017-08-03T02:34:26.767Z,16.30
2017-08-03T02:36:54.164Z,17.60
2017-08-03T02:39:21.555Z,17.13
2017-08-03T02:41:48.978Z,16.87
2017-08-03T02:44:16.379Z,16.47
2017-08-03T02:46:43.803Z,16.03
2017-08-03T02:49:11.200Z,16.10
2017-08-03T02:51:38.608Z,16.40
2017-08-03T02:54:06.068Z,16.57
2017-08-03T02:56:33.468Z,15.97
2017-08-03T02:59:00.883Z,15.67
2017-08-03T03:01:28.283Z,16.60
2017-08-03T03:03:55.699Z,16.00
2017-08-03T03:06:23.102Z,16.27
2017-08-03T03:08:50.498Z,16.20
2017-08-03T03:11:17.906Z,16.37
2017-08-03T03:13:45.305Z,15.57
2017-08-03T03:16:12.730Z,16.43
2017-08-03T03:18:40.148Z,15.97
2017-08-03T03:21:07.542Z,15.90
2017-08-03T03:23:34.959Z,16.13
2017-08-03T03:26:02.353Z,16.20
2017-08-03T03:28:29.793Z,15.67
2017-08-03T03:30:57.185Z,18.00
2017-08-03T03:33:24.584Z,15.73
2017-08-03T03:35:52.247Z,15.57
2017-08-03T03:38:19.647Z,16.30
2017-08-03T03:40:47.047Z,15.63
2017-08-03T03:43:14.442Z,16.00
2017-08-03T03:45:41.860Z,15.57
2017-08-03T03:48:09.265Z,15.97
2017-08-03T03:50:36.659Z,14.93
2017-08-03T03:53:04.148Z,13.87
2017-08-03T03:55:31.547Z,16.00
2017-08-03T03:57:58.953Z,14.07
2017-08-03T04:00:26.369Z,14.80
2017-08-03T04:02:53.767Z,15.13
2017-08-03T04:05:21.188Z,14.40
2017-08-03T04:07:48.689Z,14.23
2017-08-03T04:10:16.096Z,15.07
2017-08-03T04:12:43.519Z,16.17
2017-08-03T04:15:10.912Z,14.20
2017-08-03T04:17:41.611Z,15.50
2017-08-03T04:20:09.038Z,14.80
2017-08-03T04:22:36.468Z,14.57
2017-08-03T04:25:03.879Z,15.20
2017-08-03T04:27:31.300Z,14.90
2017-08-03T04:29:58.729Z,17.17
2017-08-03T04:32:26.107Z,15.40
2017-08-03T04:34:53.499Z,14.43
2017-08-03T04:37:20.907Z,14.63
2017-08-03T04:39:48.359Z,14.27
2017-08-03T04:42:15.759Z,14.00
2017-08-03T04:44:43.159Z,16.47
2017-08-03T04:47:10.554Z,14.90
2017-08-03T04:49:37.952Z,14.50
2017-08-03T04:52:05.347Z,14.50
2017-08-03T04:54:32.753Z,16.37
2017-08-03T04:57:00.152Z,15.20
2017-08-03T04:59:27.574Z,17.40
2017-08-03T05:01:54.999Z,15.40
2017-08-03T05:04:22.411Z,16.87
2017-08-03T05:06:49.814Z,14.60
2017-08-03T05:09:17.243Z,16.70
2017-08-03T05:11:44.681Z,14.57
2017-08-03T05:14:12.092Z,16.90
2017-08-03T05:16:39.483Z,14.97
2017-08-03T05:19:06.919Z,15.43
2017-08-03T05:21:34.348Z,15.40
2017-08-03T05:24:01.775Z,14.53
2017-08-03T05:26:29.192Z,15.33
2017-08-03T05:28:56.593Z,17.50
2017-08-03T05:31:24.028Z,15.20
2017-08-03T05:33:51.445Z,16.27
2017-08-03T05:36:18.843Z,16.17
2017-08-03T05:38:46.243Z,14.33
2017-08-03T05:41:13.645Z,15.60
2017-08-03T05:43:41.067Z,15.37
2017-08-03T05:46:08.504Z,14.60
2017-08-03T05:48:35.901Z,14.80
2017-08-03T05:51:03.312Z,16.63
2017-08-03T05:53:30.763Z,15.50
2017-08-03T05:55:58.189Z,14.80
2017-08-03T05:58:25.631Z,14.47
2017-08-03T06:00:53.016Z,14.87
2017-08-03T06:03:20.448Z,15.37
2017-08-03T06:05:47.853Z,15.50
2017-08-03T06:08:15.281Z,15.70
2017-08-03T06:10:42.680Z,14.63
2017-08-03T06:13:10.089Z,15.23
2017-08-03T06:15:37.496Z,14.87
2017-08-03T06:18:04.928Z,13.70
2017-08-03T06:20:32.347Z,15.23
2017-08-03T06:22:59.796Z,14.87
2017-08-03T06:25:27.207Z,13.30
2017-08-03T06:27:54.636Z,14.80
2017-08-03T06:30:22.021Z,15.80
2017-08-03T06:32:49.434Z,15.07
2017-08-03T06:35:16.865Z,16.40
2017-08-03T06:37:44.315Z,14.77
2017-08-03T06:40:11.712Z,15.77
2017-08-03T06:42:39.120Z,16.73
2017-08-03T06:45:06.530Z,14.93
2017-08-03T06:47:33.948Z,15.20
2017-08-03T06:50:01.355Z,16.23
2017-08-03T06:52:28.817Z,16.00
2017-08-03T06:54:56.275Z,15.83
2017-08-03T06:57:23.732Z,14.93
2017-08-03T06:59:51.215Z,15.20
2017-08-03T07:02:18.635Z,15.17
2017-08-03T07:04:46.051Z,14.83
2017-08-03T07:07:13.452Z,14.10
2017-08-03T07:09:40.860Z,15.30
2017-08-03T07:12:08.267Z,14.63
2017-08-03T07:14:35.736Z,14.80
2017-08-03T07:17:03.241Z,14.17
2017-08-03T07:19:30.740Z,15.93
2017-08-03T07:21:58.160Z,15.97
2017-08-03T07:24:25.597Z,15.03
2017-08-03T07:26:52.992Z,15.40
2017-08-03T07:29:20.520Z,14.67
2017-08-03T07:31:47.959Z,14.10
2017-08-03T07:34:15.387Z,14.37
2017-08-03T07:36:42.802Z,14.93
2017-08-03T07:39:10.250Z,14.60
2017-08-03T07:41:37.677Z,15.33
2017-08-03T07:44:05.144Z,16.33
2017-08-03T07:46:32.548Z,15.20
2017-08-03T07:49:00.008Z,15.80
2017-08-03T07:51:27.424Z,15.37
2017-08-03T07:53:54.852Z,14.10
2017-08-03T07:56:22.256Z,15.40
2017-08-03T07:58:49.655Z,15.03
2017-08-03T08:01:17.387Z,16.37
2017-08-03T08:03:44.828Z,16.03
2017-08-03T08:06:13.059Z,15.97
2017-08-03T08:08:41.195Z,15.30
2017-08-03T08:11:09.003Z,15.87
2017-08-03T08:13:36.444Z,16.13
2017-08-03T08:16:05.651Z,16.93
2017-08-03T08:18:34.270Z,16.70
2017-08-03T08:21:01.649Z,16.17
2017-08-03T08:23:29.770Z,16.70
2017-08-03T08:25:57.239Z,15.93
2017-08-03T08:28:24.687Z,16.20
2017-08-03T08:30:52.081Z,15.43
2017-08-03T08:33:19.476Z,16.10
2017-08-03T08:35:46.911Z,16.60
2017-08-03T08:38:14.332Z,16.87
2017-08-03T08:40:41.794Z,16.90
2017-08-03T08:43:09.277Z,17.13
2017-08-03T08:45:36.659Z,16.17
2017-08-03T08:48:04.071Z,16.50
2017-08-03T08:50:31.471Z,16.83
2017-08-03T08:52:58.863Z,16.80
2017-08-03T08:55:26.298Z,18.37
2017-08-03T08:57:53.683Z,18.03
2017-08-03T09:00:21.126Z,17.57
2017-08-03T09:02:48.527Z,17.60
2017-08-03T09:05:15.955Z,18.97
2017-08-03T09:07:43.376Z,18.63
2017-08-03T09:10:10.783Z,17.77
2017-08-03T09:12:38.230Z,16.70
2017-08-03T09:15:05.630Z,17.67
2017-08-03T09:17:33.018Z,18.30
2017-08-03T09:20:00.427Z,17.17
2017-08-03T09:22:27.821Z,17.67
2017-08-03T09:24:55.239Z,18.27
2017-08-03T09:27:22.633Z,15.70
2017-08-03T09:29:50.039Z,18.07
2017-08-03T09:32:17.423Z,16.23
2017-08-03T09:34:44.831Z,16.43
2017-08-03T09:37:12.280Z,17.13
2017-08-03T09:39:39.733Z,16.57
2017-08-03T09:42:07.158Z,18.20
2017-08-03T09:44:34.572Z,15.90
2017-08-03T09:47:02.003Z,16.73
2017-08-03T09:49:29.503Z,16.00
2017-08-03T09:51:56.944Z,15.93
2017-08-03T09:54:24.383Z,16.43
2017-08-03T09:56:51.822Z,17.00
2017-08-03T09:59:19.212Z,15.67
2017-08-03T10:01:46.656Z,15.37
2017-08-03T10:04:20.875Z,14.20
2017-08-03T10:06:48.264Z,13.57
2017-08-03T10:09:15.677Z,14.13
2017-08-03T10:11:43.083Z,14.53
2017-08-03T10:14:10.502Z,13.83
2017-08-03T10:16:37.912Z,13.77
2017-08-03T10:19:05.315Z,12.90
2017-08-03T10:21:32.736Z,12.50
2017-08-03T10:24:00.164Z,12.33
2017-08-03T10:26:27.576Z,14.07
2017-08-03T10:29:09.403Z,13.33
2017-08-03T10:31:36.808Z,13.00
2017-08-03T10:34:04.243Z,12.00
2017-08-03T10:36:32.049Z,11.67
2017-08-03T10:38:59.452Z,12.20
2017-08-03T10:41:26.881Z,10.93
2017-08-03T10:43:54.324Z,10.90
2017-08-03T10:46:21.725Z,12.30
2017-08-03T10:48:49.154Z,11.70
2017-08-03T10:51:16.595Z,12.60
2017-08-03T10:53:44.031Z,11.63
2017-08-03T10:56:11.473Z,11.27
2017-08-03T10:58:38.893Z,11.73
2017-08-03T11:01:06.318Z,11.07
2017-08-03T11:03:33.724Z,11.73
2017-08-03T11:06:01.175Z,11.30
2017-08-03T11:08:28.581Z,12.60
2017-08-03T11:10:55.975Z,11.77
2017-08-03T11:13:23.371Z,10.83
2017-08-03T11:15:58.028Z,9.63
2017-08-03T11:18:25.451Z,9.90
2017-08-03T11:20:52.884Z,10.20
2017-08-03T11:23:20.295Z,10.13
2017-08-03T11:25:47.742Z,9.70
2017-08-03T11:28:15.147Z,9.27
2017-08-03T11:30:42.597Z,10.27
2017-08-03T11:33:09.983Z,10.30
2017-08-03T11:35:37.399Z,10.27
2017-08-03T11:38:04.838Z,11.07
2017-08-03T11:40:32.236Z,10.97
2017-08-03T11:42:59.734Z,9.90
2017-08-03T11:45:27.132Z,9.53
2017-08-03T11:47:54.527Z,9.97
2017-08-03T11:50:22.015Z,10.57
2017-08-03T11:52:49.403Z,9.13
2017-08-03T11:55:16.809Z,10.80
2017-08-03T11:57:44.233Z,9.50
2017-08-03T12:00:11.627Z,8.90
2017-08-03T12:02:45.579Z,11.70
2017-08-03T12:05:14.108Z,10.50
2017-08-03T12:07:41.498Z,10.70
2017-08-03T12:10:08.887Z,9.40
2017-08-03T12:12:37.139Z,10.20
2017-08-03T12:15:04.521Z,10.10
2017-08-03T12:17:31.927Z,9.90
2017-08-03T12:19:59.364Z,9.80
2017-08-03T12:22:26.804Z,9.53
2017-08-03T12:24:54.199Z,9.97
2017-08-03T12:27:21.619Z,10.20
2017-08-03T12:29:49.040Z,10.33
2017-08-03T12:32:16.480Z,9.80
2017-08-03T12:34:45.824Z,9.50
2017-08-03T12:37:13.240Z,9.67
2017-08-03T12:39:40.654Z,10.60
2017-08-03T12:42:08.099Z,9.20
2017-08-03T12:44:35.498Z,10.37
2017-08-03T12:47:02.964Z,10.07
2017-08-03T12:49:30.387Z,9.70
2017-08-03T12:51:57.820Z,9.83
2017-08-03T12:54:25.237Z,10.70
2017-08-03T12:56:52.682Z,9.97
2017-08-03T12:59:20.098Z,10.10
2017-08-03T13:01:47.482Z,10.27
2017-08-03T13:04:14.897Z,11.17
2017-08-03T13:06:42.283Z,10.07
2017-08-03T13:09:09.731Z,9.67
2017-08-03T13:11:37.127Z,10.60
2017-08-03T13:14:04.526Z,10.77
2017-08-03T13:16:31.919Z,10.57
2017-08-03T13:18:59.317Z,10.17
2017-08-03T13:21:26.739Z,9.50
2017-08-03T13:23:54.139Z,10.20
2017-08-03T13:26:21.603Z,9.73
2017-08-03T13:28:49.032Z,8.83
2017-08-03T13:31:16.404Z,8.63
2017-08-03T13:33:43.804Z,9.17
2017-08-03T13:36:11.175Z,9.13
2017-08-03T13:38:38.631Z,8.93
2017-08-03T13:41:06.019Z,9.63
2017-08-03T13:43:33.426Z,8.87
2017-08-03T13:46:00.871Z,9.53
2017-08-03T13:48:28.272Z,8.50
2017-08-03T13:50:55.693Z,9.83
2017-08-03T13:53:23.119Z,8.97
2017-08-03T13:55:50.525Z,8.87
2017-08-03T13:58:17.936Z,9.37
2017-08-03T14:00:45.359Z,8.87
2017-08-03T14:03:12.789Z,9.13
2017-08-03T14:05:40.212Z,8.50
2017-08-03T14:08:07.625Z,9.33
2017-08-03T14:10:35.058Z,9.37
2017-08-03T14:13:02.506Z,8.80
2017-08-03T14:15:29.919Z,8.90
2017-08-03T14:17:59.422Z,9.07
2017-08-03T14:20:26.807Z,9.47
2017-08-03T14:22:54.244Z,8.83
2017-08-03T14:25:21.657Z,9.13
2017-08-03T14:27:49.103Z,8.63
2017-08-03T14:30:16.507Z,8.97
2017-08-03T14:32:43.915Z,8.50
2017-08-03T14:35:11.366Z,8.93
2017-08-03T14:37:38.743Z,9.30
2017-08-03T14:40:06.135Z,8.63
2017-08-03T14:42:33.531Z,9.20
2017-08-03T14:45:00.946Z,9.57
2017-08-03T14:47:28.355Z,10.70
2017-08-03T14:49:56.758Z,11.40
2017-08-03T14:52:24.188Z,11.10
2017-08-03T14:54:51.623Z,11.83
2017-08-03T14:57:19.031Z,11.23
2017-08-03T14:59:46.432Z,10.50
2017-08-03T15:02:13.869Z,10.17
2017-08-03T15:04:41.327Z,10.53
2017-08-03T15:07:08.755Z,11.40
2017-08-03T15:09:36.252Z,9.60
2017-08-03T15:12:04.747Z,10.37
2017-08-03T15:14:32.174Z,11.07
2017-08-03T15:16:59.567Z,10.37
2017-08-03T15:19:27.207Z,10.17
2017-08-03T15:21:55.338Z,9.97
2017-08-03T15:24:22.738Z,10.10
2017-08-03T15:26:50.183Z,10.60
2017-08-03T15:29:18.135Z,9.73
2017-08-03T15:31:46.147Z,11.00
2017-08-03T15:34:13.531Z,10.70
2017-08-03T15:36:40.963Z,10.63
2017-08-03T15:39:08.345Z,9.33
2017-08-03T15:41:35.744Z,9.60
2017-08-03T15:44:03.170Z,9.90
2017-08-03T15:46:30.564Z,10.00
2017-08-03T15:48:57.975Z,9.23
2017-08-03T15:51:25.413Z,11.07
2017-08-03T15:53:52.873Z,10.63
2017-08-03T15:56:20.287Z,10.80
2017-08-03T15:58:47.775Z,11.37
2017-08-03T16:01:15.169Z,11.73
2017-08-03T16:03:56.539Z,11.40
2017-08-03T16:06:23.964Z,11.03
2017-08-03T16:08:51.400Z,12.53
2017-08-03T16:11:18.812Z,15.70
2017-08-03T16:13:46.203Z,11.90
2017-08-03T16:16:13.607Z,16.20
2017-08-03T16:18:40.999Z,11.40
2017-08-03T16:21:08.403Z,10.70
2017-08-03T16:23:35.804Z,12.13
2017-08-03T16:26:03.207Z,11.07
2017-08-03T16:28:30.602Z,11.97
2017-08-03T16:30:58.017Z,10.53
2017-08-03T16:33:25.411Z,12.37
2017-08-03T16:35:52.821Z,10.87
2017-08-03T16:38:20.211Z,10.60
2017-08-03T16:40:47.610Z,9.90
2017-08-03T16:43:15.007Z,10.53
2017-08-03T16:45:42.400Z,10.33
2017-08-03T16:48:09.794Z,10.40
2017-08-03T16:50:37.211Z,11.17
2017-08-03T16:53:04.603Z,11.10
2017-08-03T16:55:32.009Z,10.50
2017-08-03T16:57:59.391Z,11.77
2017-08-03T17:00:26.815Z,12.23
2017-08-03T17:02:54.212Z,12.83
2017-08-03T17:05:21.610Z,19.17
2017-08-03T17:07:49.015Z,10.73
2017-08-03T17:10:16.430Z,14.10
2017-08-03T17:12:43.837Z,11.00
2017-08-03T17:15:11.232Z,10.20
2017-08-03T17:17:38.651Z,10.60
2017-08-03T17:20:06.063Z,10.40
2017-08-03T17:22:33.449Z,10.17
2017-08-03T17:25:00.912Z,18.13
2017-08-03T17:27:28.328Z,12.47
2017-08-03T17:29:55.789Z,12.13
2017-08-03T17:32:23.201Z,11.07
2017-08-03T17:34:50.661Z,12.30
2017-08-03T17:37:18.060Z,11.73
2017-08-03T17:39:45.461Z,10.50
2017-08-03T17:42:12.886Z,9.80
2017-08-03T17:44:40.283Z,10.70
2017-08-03T17:47:07.713Z,11.77
2017-08-03T17:49:35.120Z,11.83
2017-08-03T17:52:02.524Z,10.90
2017-08-03T17:54:29.919Z,11.90
2017-08-03T17:56:57.330Z,11.30
2017-08-03T17:59:24.762Z,11.27
2017-08-03T18:01:52.199Z,11.43
2017-08-03T18:04:19.599Z,11.20
2017-08-03T18:06:46.998Z,11.87
2017-08-03T18:09:14.403Z,11.00
2017-08-03T18:11:41.800Z,10.27
2017-08-03T18:14:09.212Z,11.13
2017-08-03T18:16:37.672Z,10.80
2017-08-03T18:19:05.083Z,10.70
2017-08-03T18:21:32.492Z,12.03
2017-08-03T18:23:59.921Z,11.73
2017-08-03T18:26:27.336Z,11.23
2017-08-03T18:28:54.737Z,12.13
2017-08-03T18:31:22.148Z,11.07
2017-08-03T18:33:49.557Z,11.47
2017-08-03T18:36:16.955Z,11.63
2017-08-03T18:38:44.404Z,10.47
2017-08-03T18:41:11.818Z,11.03
2017-08-03T18:43:39.304Z,11.73
2017-08-03T18:46:06.703Z,12.37
2017-08-03T18:48:34.151Z,12.87
2017-08-03T18:51:01.608Z,11.70
2017-08-03T18:53:29.020Z,11.70
2017-08-03T18:55:56.491Z,11.03
2017-08-03T18:58:23.996Z,13.03
2017-08-03T19:00:51.439Z,12.17
2017-08-03T19:03:18.855Z,11.33
2017-08-03T19:05:49.195Z,11.70
2017-08-03T19:08:16.611Z,11.57
2017-08-03T19:10:45.984Z,12.73
2017-08-03T19:13:13.399Z,10.87
2017-08-03T19:15:44.396Z,9.90
2017-08-03T19:18:11.863Z,9.40
2017-08-03T19:20:39.260Z,10.20
2017-08-03T19:23:06.668Z,11.03
2017-08-03T19:25:34.141Z,10.90
2017-08-03T19:28:01.548Z,11.30
2017-08-03T19:30:28.971Z,11.30
2017-08-03T19:32:56.392Z,11.30
2017-08-03T19:35:23.796Z,11.23
2017-08-03T19:37:51.229Z,11.23
2017-08-03T19:40:18.633Z,11.53
2017-08-03T19:42:46.026Z,13.70
2017-08-03T19:45:13.431Z,11.47
2017-08-03T19:47:40.830Z,11.47
2017-08-03T19:50:08.235Z,11.67
2017-08-03T19:52:35.641Z,12.07
2017-08-03T19:55:03.050Z,11.30
2017-08-03T19:57:30.451Z,12.00
2017-08-03T19:59:57.862Z,11.53
2017-08-03T20:02:25.267Z,10.80
2017-08-03T20:04:52.671Z,10.80
2017-08-03T20:07:31.960Z,11.43
2017-08-03T20:10:00.172Z,11.60
2017-08-03T20:12:27.578Z,11.30
2017-08-03T20:14:54.980Z,12.03
2017-08-03T20:17:22.379Z,10.97
2017-08-03T20:19:49.779Z,11.30
2017-08-03T20:22:17.198Z,12.23
2017-08-03T20:24:44.595Z,10.87
2017-08-03T20:27:11.991Z,11.73
2017-08-03T20:29:42.445Z,10.97
2017-08-03T20:32:09.895Z,10.67
2017-08-03T20:34:37.300Z,11.50
2017-08-03T20:37:04.695Z,12.13
2017-08-03T20:39:32.103Z,11.47
2017-08-03T20:41:59.502Z,11.87
2017-08-03T20:44:26.925Z,12.77
2017-08-03T20:46:54.327Z,11.80
2017-08-03T20:49:21.719Z,10.57
2017-08-03T20:51:49.127Z,12.57
2017-08-03T20:54:16.527Z,11.97
2017-08-03T20:56:43.931Z,11.83
2017-08-03T20:59:11.334Z,12.07
2017-08-03T21:01:38.743Z,11.73
2017-08-03T21:04:06.156Z,12.80
2017-08-03T21:06:33.560Z,11.67
2017-08-03T21:09:00.965Z,11.97
2017-08-03T21:11:28.366Z,11.87
2017-08-03T21:13:55.767Z,13.17
2017-08-03T21:16:23.163Z,12.67
2017-08-03T21:18:50.587Z,12.33
2017-08-03T21:21:17.991Z,12.90
2017-08-03T21:23:45.391Z,13.03
2017-08-03T21:26:12.798Z,11.63
2017-08-03T21:28:40.192Z,13.40
2017-08-03T21:31:07.600Z,13.73
2017-08-03T21:33:34.999Z,13.07
2017-08-03T21:36:02.408Z,12.63
2017-08-03T21:38:29.815Z,13.23
2017-08-03T21:40:57.224Z,12.97
2017-08-03T21:43:24.636Z,12.60
2017-08-03T21:45:52.037Z,13.50
2017-08-03T21:48:19.455Z,15.30
2017-08-03T21:50:46.852Z,14.50
2017-08-03T21:53:14.256Z,13.70
2017-08-03T21:55:41.663Z,12.70
2017-08-03T21:58:09.059Z,13.73
2017-08-03T22:00:48.179Z,12.77
2017-08-03T22:03:15.583Z,14.03
2017-08-03T22:05:43.004Z,13.63
2017-08-03T22:08:10.403Z,13.03
2017-08-03T22:10:37.835Z,13.57
2017-08-03T22:13:05.243Z,13.13
2017-08-03T22:15:32.643Z,13.60
2017-08-03T22:18:00.048Z,13.07
2017-08-03T22:20:27.465Z,13.57
2017-08-03T22:22:54.863Z,13.53
2017-08-03T22:25:22.275Z,12.17
2017-08-03T22:27:49.675Z,13.03
2017-08-03T22:30:17.083Z,13.10
2017-08-03T22:32:44.482Z,12.63
2017-08-03T22:35:11.887Z,12.63
2017-08-03T22:37:39.288Z,13.67
2017-08-03T22:40:06.692Z,12.87
2017-08-03T22:42:34.087Z,13.57
2017-08-03T22:45:01.495Z,12.40
2017-08-03T22:47:28.897Z,12.13
2017-08-03T22:49:56.303Z,12.10
2017-08-03T22:52:23.699Z,13.50
2017-08-03T22:54:51.121Z,12.03
2017-08-03T22:57:18.519Z,12.63
2017-08-03T22:59:45.916Z,12.63
2017-08-03T23:02:13.330Z,12.00
2017-08-03T23:04:40.740Z,12.67
2017-08-03T23:07:08.139Z,11.80
2017-08-03T23:09:35.559Z,13.23
2017-08-03T23:12:02.955Z,12.63
2017-08-03T23:14:30.370Z,12.90
2017-08-03T23:16:57.780Z,12.63
2017-08-03T23:19:25.192Z,12.47
2017-08-03T23:21:52.591Z,12.67
2017-08-03T23:24:20.008Z,11.23
2017-08-03T23:26:47.399Z,12.30
2017-08-03T23:29:14.800Z,11.90
2017-08-03T23:31:42.417Z,11.80
2017-08-03T23:34:09.820Z,10.90
2017-08-03T23:36:37.211Z,11.60
2017-08-03T23:39:04.636Z,12.43
2017-08-03T23:41:32.043Z,12.13
2017-08-03T23:43:59.450Z,13.00
2017-08-03T23:46:26.867Z,13.63
2017-08-03T23:48:54.267Z,12.57
2017-08-03T23:51:21.662Z,13.30
2017-08-03T23:53:49.088Z,12.00
2017-08-03T23:56:16.487Z,12.20
2017-08-03T23:58:43.891Z,12.07
